sensor_id;sensor_type;location;lat;lon;timestamp;pressure;altitude;pressure_sealevel;temperature;humidity
22031;BME280;11179;52.106;21.024;2024-03-25T00:00:24;99010.47;;;3.52;70.91
22031;BME280;11179;52.106;21.024;2024-03-25T00:02:50;99016.41;;;3.49;70.61
22031;BME280;11179;52.106;21.024;2024-03-25T00:05:16;99017.38;;;3.43;71.02
22031;BME280;11179;52.106;21.024;2024-03-25T00:07:48;99013.28;;;3.40;71.17
22031;BME280;11179;52.106;21.024;2024-03-25T00:10:14;99015.06;;;3.34;71.18
22031;BME280;11179;52.106;21.024;2024-03-25T00:12:39;99007.44;;;3.31;71.17
22031;BME280;11179;52.106;21.024;2024-03-25T00:15:05;99008.41;;;3.25;71.25
22031;BME280;11179;52.106;21.024;2024-03-25T00:17:30;99012.16;;;3.24;71.32
22031;BME280;11179;52.106;21.024;2024-03-25T00:19:56;99009.09;;;3.21;71.19
22031;BME280;11179;52.106;21.024;2024-03-25T00:22:22;99011.75;;;3.16;71.06
22031;BME280;11179;52.106;21.024;2024-03-25T00:24:48;99014.00;;;3.07;71.00
22031;BME280;11179;52.106;21.024;2024-03-25T00:27:14;99013.94;;;3.02;71.00
22031;BME280;11179;52.106;21.024;2024-03-25T00:29:40;99013.59;;;2.98;71.50
22031;BME280;11179;52.106;21.024;2024-03-25T00:32:06;99010.88;;;2.98;71.26
22031;BME280;11179;52.106;21.024;2024-03-25T00:34:32;99013.81;;;2.97;71.29
22031;BME280;11179;52.106;21.024;2024-03-25T00:36:58;99001.81;;;2.93;71.43
22031;BME280;11179;52.106;21.024;2024-03-25T00:39:23;99003.13;;;2.90;71.58
22031;BME280;11179;52.106;21.024;2024-03-25T00:41:49;99008.31;;;2.92;71.64
22031;BME280;11179;52.106;21.024;2024-03-25T00:44:14;99005.59;;;2.92;71.27
22031;BME280;11179;52.106;21.024;2024-03-25T00:46:40;99001.25;;;2.91;71.45
22031;BME280;11179;52.106;21.024;2024-03-25T00:49:07;99001.81;;;2.93;71.56
22031;BME280;11179;52.106;21.024;2024-03-25T00:51:32;98984.41;;;2.89;71.36
22031;BME280;11179;52.106;21.024;2024-03-25T00:53:58;98981.09;;;2.87;71.48
22031;BME280;11179;52.106;21.024;2024-03-25T00:56:23;98985.94;;;2.85;71.43
22031;BME280;11179;52.106;21.024;2024-03-25T00:58:48;98976.16;;;2.84;71.50
22031;BME280;11179;52.106;21.024;2024-03-25T01:01:14;98983.91;;;2.92;71.78
22031;BME280;11179;52.106;21.024;2024-03-25T01:03:39;98976.84;;;2.91;71.66
22031;BME280;11179;52.106;21.024;2024-03-25T01:06:05;98982.03;;;2.92;71.66
22031;BME280;11179;52.106;21.024;2024-03-25T01:08:30;98981.75;;;2.94;71.59
22031;BME280;11179;52.106;21.024;2024-03-25T01:10:55;98991.31;;;2.96;71.34
22031;BME280;11179;52.106;21.024;2024-03-25T01:13:21;98983.41;;;2.95;71.43
22031;BME280;11179;52.106;21.024;2024-03-25T01:15:46;98983.66;;;2.93;71.32
22031;BME280;11179;52.106;21.024;2024-03-25T01:18:12;98978.97;;;2.89;71.56
22031;BME280;11179;52.106;21.024;2024-03-25T01:20:38;98979.56;;;2.91;71.85
22031;BME280;11179;52.106;21.024;2024-03-25T01:23:04;98976.25;;;2.89;71.76
22031;BME280;11179;52.106;21.024;2024-03-25T01:25:30;98968.97;;;2.89;71.94
22031;BME280;11179;52.106;21.024;2024-03-25T01:27:55;98974.38;;;2.89;71.55
22031;BME280;11179;52.106;21.024;2024-03-25T01:30:21;98961.53;;;2.85;71.52
22031;BME280;11179;52.106;21.024;2024-03-25T01:32:47;98971.09;;;2.87;71.76
22031;BME280;11179;52.106;21.024;2024-03-25T01:35:14;98964.25;;;2.85;71.67
22031;BME280;11179;52.106;21.024;2024-03-25T01:37:40;98966.63;;;2.81;71.72
22031;BME280;11179;52.106;21.024;2024-03-25T01:40:09;98966.13;;;2.84;71.89
22031;BME280;11179;52.106;21.024;2024-03-25T01:42:37;98968.84;;;2.84;71.66
22031;BME280;11179;52.106;21.024;2024-03-25T01:45:03;98950.69;;;2.85;71.80
22031;BME280;11179;52.106;21.024;2024-03-25T01:47:30;98962.72;;;2.89;71.80
22031;BME280;11179;52.106;21.024;2024-03-25T01:49:58;98962.25;;;2.92;71.89
22031;BME280;11179;52.106;21.024;2024-03-25T01:52:23;98952.44;;;2.91;72.08
22031;BME280;11179;52.106;21.024;2024-03-25T01:54:51;98958.53;;;2.98;72.08
22031;BME280;11179;52.106;21.024;2024-03-25T01:57:16;98959.13;;;3.00;71.78
22031;BME280;11179;52.106;21.024;2024-03-25T01:59:42;98955.09;;;3.03;71.69
22031;BME280;11179;52.106;21.024;2024-03-25T02:02:08;98958.06;;;3.01;71.86
22031;BME280;11179;52.106;21.024;2024-03-25T02:04:37;98957.00;;;3.02;72.00
22031;BME280;11179;52.106;21.024;2024-03-25T02:07:02;98958.94;;;3.07;71.84
22031;BME280;11179;52.106;21.024;2024-03-25T02:09:29;98944.84;;;3.05;72.14
22031;BME280;11179;52.106;21.024;2024-03-25T02:11:54;98959.28;;;3.10;72.17
22031;BME280;11179;52.106;21.024;2024-03-25T02:14:20;98945.41;;;3.07;71.97
22031;BME280;11179;52.106;21.024;2024-03-25T02:16:46;98948.63;;;3.04;71.98
22031;BME280;11179;52.106;21.024;2024-03-25T02:19:13;98957.00;;;3.02;71.86
22031;BME280;11179;52.106;21.024;2024-03-25T02:21:40;98960.19;;;2.99;71.96
22031;BME280;11179;52.106;21.024;2024-03-25T02:24:09;98951.94;;;2.94;72.02
22031;BME280;11179;52.106;21.024;2024-03-25T02:26:35;98957.28;;;2.89;71.79
22031;BME280;11179;52.106;21.024;2024-03-25T02:29:02;98956.59;;;2.82;71.92
22031;BME280;11179;52.106;21.024;2024-03-25T02:31:27;98959.53;;;2.80;72.06
22031;BME280;11179;52.106;21.024;2024-03-25T02:33:52;98959.69;;;2.74;71.99
22031;BME280;11179;52.106;21.024;2024-03-25T02:36:18;98965.59;;;2.71;72.16
22031;BME280;11179;52.106;21.024;2024-03-25T02:38:43;98971.50;;;2.68;72.19
22031;BME280;11179;52.106;21.024;2024-03-25T02:41:09;98959.84;;;2.67;72.06
22031;BME280;11179;52.106;21.024;2024-03-25T02:43:34;98960.66;;;2.68;72.14
22031;BME280;11179;52.106;21.024;2024-03-25T02:46:00;98966.06;;;2.68;72.10
22031;BME280;11179;52.106;21.024;2024-03-25T02:48:25;98960.56;;;2.62;72.26
22031;BME280;11179;52.106;21.024;2024-03-25T02:50:50;98971.41;;;2.62;72.07
22031;BME280;11179;52.106;21.024;2024-03-25T02:53:16;98977.41;;;2.64;72.16
22031;BME280;11179;52.106;21.024;2024-03-25T02:55:41;98971.19;;;2.64;72.16
22031;BME280;11179;52.106;21.024;2024-03-25T02:58:07;98965.25;;;2.67;72.45
22031;BME280;11179;52.106;21.024;2024-03-25T03:00:32;98978.81;;;2.67;72.35
22031;BME280;11179;52.106;21.024;2024-03-25T03:02:57;98971.19;;;2.64;72.23
22031;BME280;11179;52.106;21.024;2024-03-25T03:05:23;98971.19;;;2.64;71.79
22031;BME280;11179;52.106;21.024;2024-03-25T03:07:48;98980.38;;;2.63;72.26
22031;BME280;11179;52.106;21.024;2024-03-25T03:10:13;98982.03;;;2.64;72.49
22031;BME280;11179;52.106;21.024;2024-03-25T03:12:41;98979.88;;;2.66;72.29
22031;BME280;11179;52.106;21.024;2024-03-25T03:15:06;98987.75;;;2.68;72.35
22031;BME280;11179;52.106;21.024;2024-03-25T03:17:32;98985.88;;;2.68;72.48
22031;BME280;11179;52.106;21.024;2024-03-25T03:19:57;98978.25;;;2.65;72.17
22031;BME280;11179;52.106;21.024;2024-03-25T03:22:22;98986.38;;;2.65;72.34
22031;BME280;11179;52.106;21.024;2024-03-25T03:24:48;98989.91;;;2.65;72.41
22031;BME280;11179;52.106;21.024;2024-03-25T03:27:13;98992.69;;;2.71;72.45
22031;BME280;11179;52.106;21.024;2024-03-25T03:29:38;98999.78;;;2.72;72.52
22031;BME280;11179;52.106;21.024;2024-03-25T03:32:04;99002.47;;;2.72;72.56
22031;BME280;11179;52.106;21.024;2024-03-25T03:34:29;99001.41;;;2.73;72.61
22031;BME280;11179;52.106;21.024;2024-03-25T03:36:54;98995.16;;;2.72;72.57
22031;BME280;11179;52.106;21.024;2024-03-25T03:39:20;98997.66;;;2.74;72.27
22031;BME280;11179;52.106;21.024;2024-03-25T03:41:45;99000.00;;;2.70;72.24
22031;BME280;11179;52.106;21.024;2024-03-25T03:44:10;98999.66;;;2.66;72.64
22031;BME280;11179;52.106;21.024;2024-03-25T03:46:37;99000.16;;;2.63;72.68
22031;BME280;11179;52.106;21.024;2024-03-25T03:49:02;99001.69;;;2.59;72.80
22031;BME280;11179;52.106;21.024;2024-03-25T03:51:28;98994.50;;;2.53;72.25
22031;BME280;11179;52.106;21.024;2024-03-25T03:53:53;99011.00;;;2.63;72.51
22031;BME280;11179;52.106;21.024;2024-03-25T03:56:18;99012.06;;;2.62;72.64
22031;BME280;11179;52.106;21.024;2024-03-25T03:58:44;99017.13;;;2.59;72.62
22031;BME280;11179;52.106;21.024;2024-03-25T04:01:16;99014.88;;;2.56;72.52
22031;BME280;11179;52.106;21.024;2024-03-25T04:03:42;99015.13;;;2.54;72.60
22031;BME280;11179;52.106;21.024;2024-03-25T04:06:09;99021.38;;;2.55;72.69
22031;BME280;11179;52.106;21.024;2024-03-25T04:08:35;99026.78;;;2.55;72.77
22031;BME280;11179;52.106;21.024;2024-03-25T04:11:01;99022.69;;;2.52;72.81
22031;BME280;11179;52.106;21.024;2024-03-25T04:13:27;99018.88;;;2.53;72.60
22031;BME280;11179;52.106;21.024;2024-03-25T04:15:52;99020.47;;;2.49;72.64
22031;BME280;11179;52.106;21.024;2024-03-25T04:18:18;99011.50;;;2.49;72.68
22031;BME280;11179;52.106;21.024;2024-03-25T04:20:44;99016.69;;;2.50;72.89
22031;BME280;11179;52.106;21.024;2024-03-25T04:23:09;99024.91;;;2.55;72.90
22031;BME280;11179;52.106;21.024;2024-03-25T04:25:36;99012.41;;;2.54;72.74
22031;BME280;11179;52.106;21.024;2024-03-25T04:28:03;99015.13;;;2.54;72.68
22031;BME280;11179;52.106;21.024;2024-03-25T04:30:28;99007.00;;;2.54;72.73
22031;BME280;11179;52.106;21.024;2024-03-25T04:32:54;99015.63;;;2.51;72.87
22031;BME280;11179;52.106;21.024;2024-03-25T04:35:19;99012.31;;;2.49;72.63
22031;BME280;11179;52.106;21.024;2024-03-25T04:37:44;99011.34;;;2.55;72.95
22031;BME280;11179;52.106;21.024;2024-03-25T04:40:11;99017.13;;;2.59;72.68
22031;BME280;11179;52.106;21.024;2024-03-25T04:42:39;99011.47;;;2.60;73.06
22031;BME280;11179;52.106;21.024;2024-03-25T04:45:05;99014.53;;;2.64;73.02
22031;BME280;11179;52.106;21.024;2024-03-25T04:47:30;99013.47;;;2.65;72.71
22031;BME280;11179;52.106;21.024;2024-03-25T04:49:56;99017.81;;;2.66;72.84
22031;BME280;11179;52.106;21.024;2024-03-25T04:52:21;99023.09;;;2.73;72.95
22031;BME280;11179;52.106;21.024;2024-03-25T04:54:49;99029.34;;;2.73;73.04
22031;BME280;11179;52.106;21.024;2024-03-25T04:57:14;99026.75;;;2.78;72.76
22031;BME280;11179;52.106;21.024;2024-03-25T04:59:39;99028.72;;;2.83;73.08
22031;BME280;11179;52.106;21.024;2024-03-25T05:02:05;99012.59;;;2.76;73.13
22031;BME280;11179;52.106;21.024;2024-03-25T05:04:30;99008.00;;;2.77;72.84
22031;BME280;11179;52.106;21.024;2024-03-25T05:06:56;99029.41;;;2.90;72.94
22031;BME280;11179;52.106;21.024;2024-03-25T05:09:21;99026.56;;;2.96;73.17
22031;BME280;11179;52.106;21.024;2024-03-25T05:11:47;99026.66;;;3.01;72.93
22031;BME280;11179;52.106;21.024;2024-03-25T05:14:12;99023.19;;;3.06;72.93
22031;BME280;11179;52.106;21.024;2024-03-25T05:16:37;99030.38;;;3.12;72.81
22031;BME280;11179;52.106;21.024;2024-03-25T05:19:03;99015.03;;;3.18;72.78
22031;BME280;11179;52.106;21.024;2024-03-25T05:21:30;99023.25;;;3.23;72.92
22031;BME280;11179;52.106;21.024;2024-03-25T05:23:55;99024.66;;;3.25;72.44
22031;BME280;11179;52.106;21.024;2024-03-25T05:26:21;99030.19;;;3.30;72.63
22031;BME280;11179;52.106;21.024;2024-03-25T05:28:46;99034.28;;;3.33;72.42
22031;BME280;11179;52.106;21.024;2024-03-25T05:31:11;99033.56;;;3.37;72.57
22031;BME280;11179;52.106;21.024;2024-03-25T05:33:37;99025.44;;;3.37;72.50
22031;BME280;11179;52.106;21.024;2024-03-25T05:36:03;99024.94;;;3.41;72.48
22031;BME280;11179;52.106;21.024;2024-03-25T05:38:29;99032.69;;;3.49;72.62
22031;BME280;11179;52.106;21.024;2024-03-25T05:40:54;99033.44;;;3.61;72.41
22031;BME280;11179;52.106;21.024;2024-03-25T05:43:20;99028.19;;;3.71;72.28
22031;BME280;11179;52.106;21.024;2024-03-25T05:45:55;99026.06;;;3.90;72.21
22031;BME280;11179;52.106;21.024;2024-03-25T05:48:21;99027.13;;;4.05;71.93
22031;BME280;11179;52.106;21.024;2024-03-25T05:51:00;99030.81;;;4.33;71.59
22031;BME280;11179;52.106;21.024;2024-03-25T05:53:27;99038.63;;;4.90;71.95
22031;BME280;11179;52.106;21.024;2024-03-25T05:55:52;99037.13;;;5.53;71.49
22031;BME280;11179;52.106;21.024;2024-03-25T05:58:17;99032.72;;;6.10;70.62
22031;BME280;11179;52.106;21.024;2024-03-25T06:00:43;99035.78;;;6.61;70.16
22031;BME280;11179;52.106;21.024;2024-03-25T06:03:08;99032.97;;;6.98;69.03
22031;BME280;11179;52.106;21.024;2024-03-25T06:05:33;99042.03;;;7.14;68.40
22031;BME280;11179;52.106;21.024;2024-03-25T06:07:59;99039.03;;;7.15;68.21
22031;BME280;11179;52.106;21.024;2024-03-25T06:10:24;99043.41;;;7.16;67.90
22031;BME280;11179;52.106;21.024;2024-03-25T06:12:49;99046.94;;;7.17;67.25
22031;BME280;11179;52.106;21.024;2024-03-25T06:15:15;99045.88;;;7.33;67.21
22031;BME280;11179;52.106;21.024;2024-03-25T06:17:40;99051.41;;;7.43;66.79
22031;BME280;11179;52.106;21.024;2024-03-25T06:20:06;99052.47;;;7.47;65.89
22031;BME280;11179;52.106;21.024;2024-03-25T06:22:31;99043.47;;;7.42;65.28
22031;BME280;11179;52.106;21.024;2024-03-25T06:24:57;99049.69;;;7.32;65.32
22031;BME280;11179;52.106;21.024;2024-03-25T06:27:22;99034.13;;;7.17;65.27
22031;BME280;11179;52.106;21.024;2024-03-25T06:29:48;99051.84;;;7.20;65.53
22031;BME280;11179;52.106;21.024;2024-03-25T06:32:13;99045.31;;;7.21;64.67
22031;BME280;11179;52.106;21.024;2024-03-25T06:34:57;99044.25;;;7.32;64.01
22031;BME280;11179;52.106;21.024;2024-03-25T06:37:26;99049.47;;;7.44;63.59
22031;BME280;11179;52.106;21.024;2024-03-25T06:39:51;99045.44;;;7.77;63.44
22031;BME280;11179;52.106;21.024;2024-03-25T06:42:18;99054.72;;;8.01;63.01
22031;BME280;11179;52.106;21.024;2024-03-25T06:44:44;99055.31;;;8.18;62.49
22031;BME280;11179;52.106;21.024;2024-03-25T06:47:14;99051.16;;;8.61;61.68
22031;BME280;11179;52.106;21.024;2024-03-25T06:49:39;99052.88;;;9.17;61.62
22031;BME280;11179;52.106;21.024;2024-03-25T06:52:04;99053.66;;;9.71;60.44
22031;BME280;11179;52.106;21.024;2024-03-25T06:54:30;99051.53;;;10.31;59.29
22031;BME280;11179;52.106;21.024;2024-03-25T06:56:55;99048.09;;;10.73;57.96
22031;BME280;11179;52.106;21.024;2024-03-25T06:59:21;99044.72;;;10.81;57.18
22031;BME280;11179;52.106;21.024;2024-03-25T07:01:47;99046.47;;;10.72;57.47
22031;BME280;11179;52.106;21.024;2024-03-25T07:04:12;99051.59;;;10.55;57.30
22031;BME280;11179;52.106;21.024;2024-03-25T07:06:38;99045.41;;;10.39;57.25
22031;BME280;11179;52.106;21.024;2024-03-25T07:09:03;99053.44;;;10.65;57.26
22031;BME280;11179;52.106;21.024;2024-03-25T07:11:28;99055.19;;;11.03;56.43
22031;BME280;11179;52.106;21.024;2024-03-25T07:13:54;99049.69;;;11.03;56.29
22031;BME280;11179;52.106;21.024;2024-03-25T07:16:19;99043.81;;;11.10;55.72
22031;BME280;11179;52.106;21.024;2024-03-25T07:18:45;99049.59;;;11.08;55.50
22031;BME280;11179;52.106;21.024;2024-03-25T07:21:10;99054.66;;;11.01;55.32
22031;BME280;11179;52.106;21.024;2024-03-25T07:23:35;99054.53;;;10.88;54.47
22031;BME280;11179;52.106;21.024;2024-03-25T07:26:01;99053.31;;;11.23;54.75
22031;BME280;11179;52.106;21.024;2024-03-25T07:28:26;99061.66;;;11.93;54.04
22031;BME280;11179;52.106;21.024;2024-03-25T07:30:51;99062.00;;;12.56;52.88
22031;BME280;11179;52.106;21.024;2024-03-25T07:33:17;99054.91;;;12.96;51.51
22031;BME280;11179;52.106;21.024;2024-03-25T07:35:44;99044.28;;;13.30;50.67
22031;BME280;11179;52.106;21.024;2024-03-25T07:38:10;99050.97;;;13.65;50.02
22031;BME280;11179;52.106;21.024;2024-03-25T07:40:35;99053.75;;;13.88;49.67
22031;BME280;11179;52.106;21.024;2024-03-25T07:43:00;99056.78;;;14.00;48.93
22031;BME280;11179;52.106;21.024;2024-03-25T07:45:26;99054.72;;;14.06;48.72
22031;BME280;11179;52.106;21.024;2024-03-25T07:47:51;99053.97;;;14.36;48.04
22031;BME280;11179;52.106;21.024;2024-03-25T07:50:17;99052.81;;;14.59;47.36
22031;BME280;11179;52.106;21.024;2024-03-25T07:52:42;99070.47;;;14.72;46.37
22031;BME280;11179;52.106;21.024;2024-03-25T07:55:08;99064.81;;;14.77;46.24
22031;BME280;11179;52.106;21.024;2024-03-25T07:57:33;99063.84;;;14.82;45.71
22031;BME280;11179;52.106;21.024;2024-03-25T07:59:58;99069.53;;;14.77;45.66
22031;BME280;11179;52.106;21.024;2024-03-25T08:02:24;99065.88;;;14.67;45.31
22031;BME280;11179;52.106;21.024;2024-03-25T08:04:49;99077.56;;;14.20;45.37
22031;BME280;11179;52.106;21.024;2024-03-25T08:07:15;99075.22;;;13.91;45.86
22031;BME280;11179;52.106;21.024;2024-03-25T08:09:40;99080.69;;;14.27;45.46
22031;BME280;11179;52.106;21.024;2024-03-25T08:12:06;99067.50;;;14.68;44.93
22031;BME280;11179;52.106;21.024;2024-03-25T08:14:31;99065.50;;;14.60;45.01
22031;BME280;11179;52.106;21.024;2024-03-25T08:16:56;99070.16;;;14.07;45.28
22031;BME280;11179;52.106;21.024;2024-03-25T08:19:22;99070.34;;;14.10;45.19
22031;BME280;11179;52.106;21.024;2024-03-25T08:21:47;99067.91;;;14.31;44.95
22031;BME280;11179;52.106;21.024;2024-03-25T08:24:14;99074.50;;;14.21;44.42
22031;BME280;11179;52.106;21.024;2024-03-25T08:26:39;99057.94;;;14.52;44.43
22031;BME280;11179;52.106;21.024;2024-03-25T08:29:04;99072.66;;;14.39;43.96
22031;BME280;11179;52.106;21.024;2024-03-25T08:31:31;99071.59;;;13.82;44.39
22031;BME280;11179;52.106;21.024;2024-03-25T08:33:56;99084.69;;;13.35;44.65
22031;BME280;11179;52.106;21.024;2024-03-25T08:36:22;99079.63;;;13.01;45.01
22031;BME280;11179;52.106;21.024;2024-03-25T08:38:47;99082.19;;;12.65;45.44
22031;BME280;11179;52.106;21.024;2024-03-25T08:41:12;99082.44;;;12.36;45.76
22031;BME280;11179;52.106;21.024;2024-03-25T08:43:37;99084.56;;;12.07;46.02
22031;BME280;11179;52.106;21.024;2024-03-25T08:46:03;99087.25;;;11.93;46.15
22031;BME280;11179;52.106;21.024;2024-03-25T08:48:29;99090.66;;;11.85;46.65
22031;BME280;11179;52.106;21.024;2024-03-25T08:50:55;99082.69;;;12.21;46.57
22031;BME280;11179;52.106;21.024;2024-03-25T08:53:20;99084.03;;;12.56;45.92
22031;BME280;11179;52.106;21.024;2024-03-25T08:55:47;99078.31;;;12.52;45.62
22031;BME280;11179;52.106;21.024;2024-03-25T08:58:13;99079.75;;;12.31;45.76
22031;BME280;11179;52.106;21.024;2024-03-25T09:00:38;99087.72;;;12.14;45.95
22031;BME280;11179;52.106;21.024;2024-03-25T09:03:04;99091.53;;;11.99;46.23
22031;BME280;11179;52.106;21.024;2024-03-25T09:05:30;99099.06;;;11.94;45.93
22031;BME280;11179;52.106;21.024;2024-03-25T09:07:55;99088.50;;;12.01;46.15
22031;BME280;11179;52.106;21.024;2024-03-25T09:10:21;99087.19;;;12.49;45.48
22031;BME280;11179;52.106;21.024;2024-03-25T09:13:05;99085.44;;;13.13;44.88
22031;BME280;11179;52.106;21.024;2024-03-25T09:15:30;99085.31;;;13.59;44.62
22031;BME280;11179;52.106;21.024;2024-03-25T09:17:56;99084.31;;;13.91;44.01
22031;BME280;11179;52.106;21.024;2024-03-25T09:20:21;99084.72;;;14.21;43.78
22031;BME280;11179;52.106;21.024;2024-03-25T09:22:47;99088.25;;;13.99;43.15
22031;BME280;11179;52.106;21.024;2024-03-25T09:25:16;99089.97;;;13.73;43.28
22031;BME280;11179;52.106;21.024;2024-03-25T09:27:45;99092.44;;;13.33;43.71
22031;BME280;11179;52.106;21.024;2024-03-25T09:30:11;99096.66;;;13.03;43.83
22031;BME280;11179;52.106;21.024;2024-03-25T09:32:36;99101.09;;;12.72;43.73
22031;BME280;11179;52.106;21.024;2024-03-25T09:35:02;99097.00;;;12.37;44.02
22031;BME280;11179;52.106;21.024;2024-03-25T09:37:28;99097.44;;;12.11;44.37
22031;BME280;11179;52.106;21.024;2024-03-25T09:39:54;99103.34;;;12.00;44.59
22031;BME280;11179;52.106;21.024;2024-03-25T09:42:25;99111.47;;;12.10;44.73
22031;BME280;11179;52.106;21.024;2024-03-25T09:44:55;99102.53;;;12.18;44.74
22031;BME280;11179;52.106;21.024;2024-03-25T09:47:23;99093.91;;;12.24;44.51
22031;BME280;11179;52.106;21.024;2024-03-25T09:49:49;99101.69;;;12.36;44.48
22031;BME280;11179;52.106;21.024;2024-03-25T09:52:17;99103.56;;;12.73;44.60
22031;BME280;11179;52.106;21.024;2024-03-25T09:54:42;99103.00;;;13.17;43.91
22031;BME280;11179;52.106;21.024;2024-03-25T09:57:08;99101.75;;;13.64;43.33
22031;BME280;11179;52.106;21.024;2024-03-25T09:59:34;99097.03;;;13.51;42.77
22031;BME280;11179;52.106;21.024;2024-03-25T10:02:01;99096.53;;;13.22;42.86
22031;BME280;11179;52.106;21.024;2024-03-25T10:04:27;99104.28;;;13.06;43.26
22031;BME280;11179;52.106;21.024;2024-03-25T10:06:52;99106.63;;;12.85;43.21
22031;BME280;11179;52.106;21.024;2024-03-25T10:09:22;99104.84;;;12.62;43.30
22031;BME280;11179;52.106;21.024;2024-03-25T10:11:50;99104.22;;;12.33;43.68
22031;BME280;11179;52.106;21.024;2024-03-25T10:14:16;99106.09;;;12.18;44.07
22031;BME280;11179;52.106;21.024;2024-03-25T10:16:42;99109.59;;;12.05;44.26
22031;BME280;11179;52.106;21.024;2024-03-25T10:19:07;99108.94;;;11.95;44.60
22031;BME280;11179;52.106;21.024;2024-03-25T10:21:33;99107.75;;;11.82;44.51
22031;BME280;11179;52.106;21.024;2024-03-25T10:23:58;99109.53;;;11.73;44.81
22031;BME280;11179;52.106;21.024;2024-03-25T10:26:31;99114.94;;;11.59;45.22
22031;BME280;11179;52.106;21.024;2024-03-25T10:29:05;99115.88;;;11.49;45.28
22031;BME280;11179;52.106;21.024;2024-03-25T10:31:34;99114.69;;;11.37;45.22
22031;BME280;11179;52.106;21.024;2024-03-25T10:33:59;99119.44;;;11.31;45.11
22031;BME280;11179;52.106;21.024;2024-03-25T10:36:25;99115.25;;;11.34;44.88
22031;BME280;11179;52.106;21.024;2024-03-25T10:39:02;99117.81;;;11.49;44.78
22031;BME280;11179;52.106;21.024;2024-03-25T10:41:28;99117.03;;;11.67;44.93
22031;BME280;11179;52.106;21.024;2024-03-25T10:43:53;99115.19;;;11.81;44.56
22031;BME280;11179;52.106;21.024;2024-03-25T10:46:20;99113.09;;;11.92;44.46
22031;BME280;11179;52.106;21.024;2024-03-25T10:48:54;99116.75;;;12.06;44.26
22031;BME280;11179;52.106;21.024;2024-03-25T10:51:23;99119.63;;;12.15;44.04
22031;BME280;11179;52.106;21.024;2024-03-25T10:53:51;99120.38;;;12.20;44.23
22031;BME280;11179;52.106;21.024;2024-03-25T10:56:20;99122.66;;;12.32;43.80
22031;BME280;11179;52.106;21.024;2024-03-25T10:58:47;99112.94;;;12.40;43.84
22031;BME280;11179;52.106;21.024;2024-03-25T11:01:15;99122.16;;;12.30;43.86
22031;BME280;11179;52.106;21.024;2024-03-25T11:03:41;99122.75;;;12.27;43.58
22031;BME280;11179;52.106;21.024;2024-03-25T11:06:07;99111.59;;;12.37;43.56
22031;BME280;11179;52.106;21.024;2024-03-25T11:08:33;99119.47;;;12.44;43.45
22031;BME280;11179;52.106;21.024;2024-03-25T11:10:59;99119.84;;;12.37;43.50
22031;BME280;11179;52.106;21.024;2024-03-25T11:13:26;99119.91;;;12.32;43.75
22031;BME280;11179;52.106;21.024;2024-03-25T11:15:52;99114.41;;;12.32;43.52
22031;BME280;11179;52.106;21.024;2024-03-25T11:18:21;99102.59;;;12.32;43.36
22031;BME280;11179;52.106;21.024;2024-03-25T11:21:03;99102.66;;;12.45;43.31
22031;BME280;11179;52.106;21.024;2024-03-25T11:23:38;99113.28;;;12.52;43.05
22031;BME280;11179;52.106;21.024;2024-03-25T11:26:19;99099.97;;;12.73;43.03
22031;BME280;11179;52.106;21.024;2024-03-25T11:28:45;99104.41;;;12.87;42.66
22031;BME280;11179;52.106;21.024;2024-03-25T11:31:11;99102.03;;;12.81;42.53
22031;BME280;11179;52.106;21.024;2024-03-25T11:33:38;99107.00;;;12.79;42.91
22031;BME280;11179;52.106;21.024;2024-03-25T11:36:04;99101.00;;;12.77;42.83
22031;BME280;11179;52.106;21.024;2024-03-25T11:38:30;99097.41;;;12.63;42.87
22031;BME280;11179;52.106;21.024;2024-03-25T11:40:55;99104.63;;;12.58;43.18
22031;BME280;11179;52.106;21.024;2024-03-25T11:43:22;99095.56;;;12.58;43.15
22031;BME280;11179;52.106;21.024;2024-03-25T11:45:47;99103.53;;;12.59;43.04
22031;BME280;11179;52.106;21.024;2024-03-25T11:48:16;99103.63;;;12.68;43.26
22031;BME280;11179;52.106;21.024;2024-03-25T11:50:45;99098.97;;;12.82;43.24
22031;BME280;11179;52.106;21.024;2024-03-25T11:53:10;99104.78;;;12.94;43.19
22031;BME280;11179;52.106;21.024;2024-03-25T11:55:35;99105.94;;;13.07;43.35
22031;BME280;11179;52.106;21.024;2024-03-25T11:58:01;99097.16;;;13.05;42.97
22031;BME280;11179;52.106;21.024;2024-03-25T12:00:27;99094.31;;;13.10;42.80
22031;BME280;11179;52.106;21.024;2024-03-25T12:02:54;99108.81;;;13.02;43.13
22031;BME280;11179;52.106;21.024;2024-03-25T12:05:20;99105.91;;;12.93;43.04
22031;BME280;11179;52.106;21.024;2024-03-25T12:07:45;99099.19;;;12.86;43.07
22031;BME280;11179;52.106;21.024;2024-03-25T12:10:11;99107.66;;;12.89;43.47
22031;BME280;11179;52.106;21.024;2024-03-25T12:12:55;99106.72;;;12.94;42.70
22031;BME280;11179;52.106;21.024;2024-03-25T12:15:21;99101.00;;;12.77;42.42
22031;BME280;11179;52.106;21.024;2024-03-25T12:17:47;99099.19;;;12.86;42.45
22031;BME280;11179;52.106;21.024;2024-03-25T12:20:13;99110.22;;;13.00;42.63
22031;BME280;11179;52.106;21.024;2024-03-25T12:22:39;99102.47;;;13.15;42.82
22031;BME280;11179;52.106;21.024;2024-03-25T12:25:06;99102.88;;;13.22;42.47
22031;BME280;11179;52.106;21.024;2024-03-25T12:27:33;99096.25;;;13.23;42.45
22031;BME280;11179;52.106;21.024;2024-03-25T12:29:59;99109.94;;;13.28;42.36
22031;BME280;11179;52.106;21.024;2024-03-25T12:35:01;99110.75;;;13.02;42.32
22031;BME280;11179;52.106;21.024;2024-03-25T12:37:27;99111.53;;;12.88;42.59
22031;BME280;11179;52.106;21.024;2024-03-25T12:39:52;99113.81;;;12.68;42.97
22031;BME280;11179;52.106;21.024;2024-03-25T12:42:18;99112.16;;;12.53;43.13
22031;BME280;11179;52.106;21.024;2024-03-25T12:44:44;99112.06;;;12.39;43.28
22031;BME280;11179;52.106;21.024;2024-03-25T12:47:10;99119.09;;;12.50;43.73
22031;BME280;11179;52.106;21.024;2024-03-25T12:49:35;99117.06;;;12.56;43.61
22031;BME280;11179;52.106;21.024;2024-03-25T12:52:01;99132.47;;;12.38;43.75